createdAt,value
2017-07-25T00:00:49.644Z,10.15
2017-07-25T00:03:17.496Z,10.80
2017-07-25T00:05:44.993Z,11.12
2017-07-25T00:08:13.229Z,9.48
2017-07-25T00:10:40.731Z,9.27
2017-07-25T00:13:08.301Z,9.65
2017-07-25T00:15:35.844Z,10.45
2017-07-25T00:18:03.384Z,11.77
2017-07-25T00:20:30.952Z,9.68
2017-07-25T00:22:58.591Z,10.35
2017-07-25T00:25:26.109Z,9.50
2017-07-25T00:27:53.621Z,10.60
2017-07-25T00:30:21.905Z,9.90
2017-07-25T00:32:49.477Z,9.32
2017-07-25T00:35:17.112Z,9.65
2017-07-25T00:37:44.611Z,8.55
2017-07-25T00:40:12.129Z,10.15
2017-07-25T00:42:39.668Z,9.90
2017-07-25T00:45:07.416Z,10.00
2017-07-25T00:47:34.928Z,9.98
2017-07-25T00:50:03.767Z,9.73
2017-07-25T00:52:31.346Z,9.88
2017-07-25T00:54:58.962Z,9.40
2017-07-25T00:57:26.486Z,9.90
2017-07-25T00:59:56.277Z,10.85
2017-07-25T01:02:24.663Z,10.15
2017-07-25T01:04:53.501Z,9.10
2017-07-25T01:07:21.004Z,10.50
2017-07-25T01:09:49.096Z,11.18
2017-07-25T01:12:16.607Z,11.30
2017-07-25T01:14:44.147Z,8.98
2017-07-25T01:17:11.667Z,9.70
2017-07-25T01:19:40.750Z,8.98
2017-07-25T01:22:08.275Z,9.10
2017-07-25T01:24:35.837Z,10.23
2017-07-25T01:27:03.327Z,10.73
2017-07-25T01:29:30.847Z,10.35
2017-07-25T01:31:58.385Z,9.68
2017-07-25T01:34:25.907Z,10.38
2017-07-25T01:36:53.416Z,11.63
2017-07-25T01:39:20.945Z,10.00
2017-07-25T01:41:48.447Z,10.68
2017-07-25T01:44:15.935Z,10.82
2017-07-25T01:46:43.426Z,10.70
2017-07-25T01:49:11.039Z,10.10
2017-07-25T01:51:38.521Z,9.55
2017-07-25T01:54:06.031Z,10.60
2017-07-25T01:56:33.557Z,9.65
2017-07-25T01:59:01.808Z,8.82
2017-07-25T02:01:29.322Z,10.00
2017-07-25T02:03:57.582Z,8.45
2017-07-25T02:06:25.082Z,10.63
2017-07-25T02:08:52.618Z,8.90
2017-07-25T02:11:20.109Z,8.13
2017-07-25T02:13:48.366Z,9.25
2017-07-25T02:16:15.861Z,9.80
2017-07-25T02:18:43.373Z,8.35
2017-07-25T02:21:10.891Z,8.60
2017-07-25T02:23:38.383Z,8.15
2017-07-25T02:26:05.912Z,8.35
2017-07-25T02:28:34.180Z,8.63
2017-07-25T02:31:02.453Z,8.20
2017-07-25T02:33:30.256Z,8.45
2017-07-25T02:35:58.949Z,8.45
2017-07-25T02:38:26.451Z,9.50
2017-07-25T02:40:53.967Z,8.23
2017-07-25T02:43:21.478Z,8.90
2017-07-25T02:45:48.982Z,8.90
2017-07-25T02:48:16.538Z,8.23
2017-07-25T02:50:44.073Z,10.43
2017-07-25T02:53:11.565Z,8.50
2017-07-25T02:55:39.149Z,8.73
2017-07-25T02:58:06.649Z,8.32
2017-07-25T03:00:34.145Z,7.45
2017-07-25T03:03:01.667Z,8.50
2017-07-25T03:05:29.934Z,8.02
2017-07-25T03:07:58.199Z,8.48
2017-07-25T03:10:25.699Z,7.65
2017-07-25T03:12:53.212Z,8.38
2017-07-25T03:15:20.696Z,8.05
2017-07-25T03:17:48.218Z,8.25
2017-07-25T03:20:15.704Z,7.75
2017-07-25T03:22:43.967Z,8.75
2017-07-25T03:25:11.491Z,8.02
2017-07-25T03:27:38.979Z,9.27
2017-07-25T03:30:06.472Z,8.40
2017-07-25T03:32:33.988Z,9.75
2017-07-25T03:35:01.552Z,10.35
2017-07-25T03:37:29.046Z,9.43
2017-07-25T03:39:56.559Z,9.63
2017-07-25T03:42:24.110Z,9.95
2017-07-25T03:44:51.602Z,9.02
2017-07-25T03:47:19.098Z,9.75
2017-07-25T03:49:46.614Z,10.07
2017-07-25T03:52:14.797Z,9.30
2017-07-25T03:54:42.295Z,10.60
2017-07-25T03:57:09.913Z,11.20
2017-07-25T03:59:37.428Z,9.95
2017-07-25T04:02:04.980Z,9.93
2017-07-25T04:04:32.525Z,9.65
2017-07-25T04:07:00.055Z,10.48
2017-07-25T04:09:27.561Z,10.75
2017-07-25T04:11:55.074Z,11.20
2017-07-25T04:14:22.602Z,12.23
2017-07-25T04:16:50.148Z,10.45
2017-07-25T04:19:17.702Z,11.32
2017-07-25T04:21:45.196Z,11.85
2017-07-25T04:24:12.735Z,10.75
2017-07-25T04:26:40.260Z,11.55
2017-07-25T04:29:07.782Z,11.05
2017-07-25T04:31:35.284Z,10.90
2017-07-25T04:34:02.776Z,10.10
2017-07-25T04:36:30.303Z,10.60
2017-07-25T04:38:57.851Z,9.90
2017-07-25T04:41:26.123Z,10.88
2017-07-25T04:43:54.393Z,10.98
2017-07-25T04:46:22.676Z,11.07
2017-07-25T04:48:51.080Z,10.40
2017-07-25T04:51:18.589Z,9.80
2017-07-25T04:53:46.086Z,9.88
2017-07-25T04:56:13.625Z,9.52
2017-07-25T04:58:41.124Z,9.30
2017-07-25T05:01:08.633Z,8.35
2017-07-25T05:03:36.128Z,8.23
2017-07-25T05:06:03.613Z,7.00
2017-07-25T05:08:31.387Z,8.95
2017-07-25T05:10:58.868Z,8.20
2017-07-25T05:13:26.376Z,8.50
2017-07-25T05:15:53.882Z,9.38
2017-07-25T05:18:33.292Z,8.50
2017-07-25T05:21:00.782Z,8.75
2017-07-25T05:23:28.314Z,9.73
2017-07-25T05:25:55.858Z,9.75
2017-07-25T05:28:23.462Z,8.52
2017-07-25T05:30:50.991Z,10.30
2017-07-25T05:33:18.508Z,9.98
2017-07-25T05:35:46.787Z,7.90
2017-07-25T05:38:15.109Z,7.60
2017-07-25T05:40:42.591Z,8.63
2017-07-25T05:43:10.808Z,8.48
2017-07-25T05:45:38.373Z,9.20
2017-07-25T05:48:06.049Z,10.07
2017-07-25T05:50:33.592Z,8.70
2017-07-25T05:53:01.915Z,9.25
2017-07-25T05:55:29.420Z,10.15
2017-07-25T05:57:56.934Z,9.00
2017-07-25T06:00:24.444Z,9.88
2017-07-25T06:02:52.737Z,8.45
2017-07-25T06:05:20.234Z,8.43
2017-07-25T06:07:47.729Z,8.98
2017-07-25T06:10:15.250Z,10.27
2017-07-25T06:12:42.778Z,10.43
2017-07-25T06:15:10.337Z,9.80
2017-07-25T06:17:37.824Z,10.15
2017-07-25T06:20:05.937Z,9.60
2017-07-25T06:22:34.220Z,9.90
2017-07-25T06:25:02.525Z,10.88
2017-07-25T06:27:30.051Z,10.52
2017-07-25T06:29:57.584Z,9.35
2017-07-25T06:32:25.108Z,11.95
2017-07-25T06:34:52.692Z,11.05
2017-07-25T06:37:20.233Z,12.65
2017-07-25T06:39:47.739Z,11.85
2017-07-25T06:42:15.290Z,12.75
2017-07-25T06:44:42.787Z,13.57
2017-07-25T06:47:10.302Z,10.52
2017-07-25T06:49:37.820Z,10.95
2017-07-25T06:52:05.331Z,11.80
2017-07-25T06:54:32.920Z,12.77
2017-07-25T06:57:00.430Z,10.77
2017-07-25T06:59:27.945Z,9.75
2017-07-25T07:01:55.470Z,9.55
2017-07-25T07:04:22.972Z,10.00
2017-07-25T07:06:50.639Z,9.00
2017-07-25T07:09:18.185Z,8.70
2017-07-25T07:11:45.743Z,9.90
2017-07-25T07:14:13.257Z,8.50
2017-07-25T07:16:40.758Z,10.05
2017-07-25T07:19:08.259Z,7.85
2017-07-25T07:21:35.777Z,7.07
2017-07-25T07:24:03.502Z,8.95
2017-07-25T07:26:31.013Z,8.70
2017-07-25T07:28:58.518Z,8.18
2017-07-25T07:31:26.017Z,7.90
2017-07-25T07:33:53.533Z,7.12
2017-07-25T07:36:21.083Z,7.72
2017-07-25T07:38:48.593Z,6.25
2017-07-25T07:41:16.109Z,6.57
2017-07-25T07:43:43.699Z,6.30
2017-07-25T07:46:11.252Z,7.00
2017-07-25T07:48:38.758Z,6.53
2017-07-25T07:51:06.275Z,6.20
2017-07-25T07:53:33.783Z,5.35
2017-07-25T07:56:01.303Z,5.70
2017-07-25T07:58:29.670Z,4.62
2017-07-25T08:00:57.180Z,4.90
2017-07-25T08:03:24.692Z,5.65
2017-07-25T08:05:52.966Z,5.50
2017-07-25T08:08:20.543Z,5.00
2017-07-25T08:10:48.047Z,4.45
2017-07-25T08:13:15.697Z,4.55
2017-07-25T08:15:43.205Z,4.65
2017-07-25T08:18:10.816Z,4.70
2017-07-25T08:20:38.358Z,3.80
2017-07-25T08:23:05.884Z,4.40
2017-07-25T08:25:33.395Z,4.72
2017-07-25T08:28:00.895Z,4.05
2017-07-25T08:30:28.372Z,4.47
2017-07-25T08:32:56.626Z,5.57
2017-07-25T08:35:24.146Z,4.18
2017-07-25T08:37:51.655Z,4.57
2017-07-25T08:40:19.181Z,4.55
2017-07-25T08:42:46.709Z,5.18
2017-07-25T08:45:14.612Z,5.62
2017-07-25T08:47:42.115Z,4.50
2017-07-25T08:50:09.592Z,5.28
2017-07-25T08:52:37.085Z,3.95
2017-07-25T08:55:04.639Z,4.72
2017-07-25T08:57:32.157Z,5.60
2017-07-25T08:59:59.662Z,4.70
2017-07-25T09:02:27.362Z,6.03
2017-07-25T09:04:54.931Z,4.87
2017-07-25T09:07:22.413Z,5.55
2017-07-25T09:09:49.899Z,5.35
2017-07-25T09:12:17.441Z,5.20
2017-07-25T09:14:44.940Z,4.20
2017-07-25T09:17:12.446Z,4.65
2017-07-25T09:19:40.058Z,4.80
2017-07-25T09:22:07.562Z,5.00
2017-07-25T09:24:35.056Z,4.97
2017-07-25T09:27:02.568Z,3.58
2017-07-25T09:29:30.835Z,3.60
2017-07-25T09:31:59.136Z,4.28
2017-07-25T09:34:26.651Z,4.57
2017-07-25T09:36:54.183Z,4.25
2017-07-25T09:39:21.744Z,4.20
2017-07-25T09:41:49.284Z,4.43
2017-07-25T09:44:16.785Z,4.03
2017-07-25T09:46:44.318Z,4.53
2017-07-25T09:49:11.872Z,4.53
2017-07-25T09:51:39.383Z,3.40
2017-07-25T09:54:07.697Z,3.80
2017-07-25T09:56:35.217Z,3.58
2017-07-25T09:59:02.708Z,3.58
2017-07-25T10:01:30.217Z,3.40
2017-07-25T10:03:57.704Z,3.50
2017-07-25T10:06:25.209Z,4.10
2017-07-25T10:08:52.740Z,3.97
2017-07-25T10:11:20.229Z,3.85
2017-07-25T10:13:48.046Z,3.85
2017-07-25T10:16:15.570Z,3.25
2017-07-25T10:18:43.049Z,3.53
2017-07-25T10:21:10.569Z,3.12
2017-07-25T10:23:38.089Z,3.60
2017-07-25T10:26:05.610Z,3.62
2017-07-25T10:28:33.081Z,3.20
2017-07-25T10:31:00.587Z,3.20
2017-07-25T10:33:28.099Z,3.25
2017-07-25T10:35:55.633Z,3.47
2017-07-25T10:38:23.113Z,3.50
2017-07-25T10:40:50.645Z,3.22
2017-07-25T10:43:18.136Z,3.45
2017-07-25T10:45:45.636Z,3.60
2017-07-25T10:48:13.130Z,3.05
2017-07-25T10:50:40.642Z,3.85
2017-07-25T10:53:08.915Z,3.85
2017-07-25T10:55:37.179Z,3.15
2017-07-25T10:58:04.698Z,3.15
2017-07-25T11:00:32.213Z,3.17
2017-07-25T11:02:59.717Z,2.83
2017-07-25T11:05:27.235Z,3.08
2017-07-25T11:07:55.507Z,2.80
2017-07-25T11:10:23.747Z,2.58
2017-07-25T11:12:51.246Z,2.90
2017-07-25T11:15:18.814Z,2.60
2017-07-25T11:17:46.324Z,3.03
2017-07-25T11:20:13.871Z,2.70
2017-07-25T11:22:41.360Z,2.10
2017-07-25T11:25:08.847Z,2.33
2017-07-25T11:27:36.387Z,2.20
2017-07-25T11:30:03.879Z,2.95
2017-07-25T11:32:31.364Z,3.05
2017-07-25T11:34:58.870Z,2.30
2017-07-25T11:37:26.450Z,2.80
2017-07-25T11:39:53.939Z,3.28
2017-07-25T11:42:21.443Z,3.17
2017-07-25T11:44:49.036Z,3.35
2017-07-25T11:47:16.608Z,3.53
2017-07-25T11:49:44.094Z,3.30
2017-07-25T11:52:11.606Z,3.22
2017-07-25T11:54:39.121Z,3.10
2017-07-25T11:57:06.648Z,3.00
2017-07-25T11:59:34.254Z,2.70
2017-07-25T12:02:01.782Z,2.40
2017-07-25T12:04:29.604Z,4.03
2017-07-25T12:06:57.115Z,4.15
2017-07-25T12:09:24.629Z,3.03
2017-07-25T12:11:52.183Z,3.00
2017-07-25T12:14:19.693Z,3.40
2017-07-25T12:16:47.200Z,3.00
2017-07-25T12:19:15.790Z,3.17
2017-07-25T12:21:45.237Z,3.80
2017-07-25T12:24:12.757Z,2.80
2017-07-25T12:26:40.254Z,2.90
2017-07-25T12:29:07.763Z,2.85
2017-07-25T12:31:35.365Z,2.70
2017-07-25T12:34:02.869Z,3.45
2017-07-25T12:36:31.192Z,3.33
2017-07-25T12:38:58.692Z,2.72
2017-07-25T12:41:26.195Z,3.05
2017-07-25T12:43:53.798Z,2.45
2017-07-25T12:46:21.312Z,2.58
2017-07-25T12:48:48.999Z,3.10
2017-07-25T12:51:16.520Z,5.10
2017-07-25T12:53:44.859Z,2.80
2017-07-25T12:56:12.385Z,2.97
2017-07-25T12:58:39.918Z,2.72
2017-07-25T13:01:19.906Z,2.62
2017-07-25T13:03:47.460Z,3.03
2017-07-25T13:06:14.983Z,2.60
2017-07-25T13:08:43.247Z,2.20
2017-07-25T13:11:10.761Z,2.90
2017-07-25T13:13:38.257Z,2.45
2017-07-25T13:16:05.748Z,1.85
2017-07-25T13:18:33.232Z,2.03
2017-07-25T13:21:00.732Z,2.78
2017-07-25T13:23:28.566Z,2.78
2017-07-25T13:25:56.099Z,2.70
2017-07-25T13:28:23.601Z,6.07
2017-07-25T13:30:51.628Z,3.62
2017-07-25T13:33:19.146Z,4.65
2017-07-25T13:35:46.668Z,3.55
2017-07-25T13:38:14.172Z,3.58
2017-07-25T13:40:41.681Z,4.90
2017-07-25T13:43:09.188Z,4.80
2017-07-25T13:45:36.691Z,3.80
2017-07-25T13:48:04.220Z,3.70
2017-07-25T13:50:32.496Z,3.60
2017-07-25T13:53:00.769Z,3.22
2017-07-25T13:55:29.057Z,4.78
2017-07-25T13:57:57.350Z,3.80
2017-07-25T14:00:24.845Z,3.65
2017-07-25T14:02:52.333Z,3.62
2017-07-25T14:05:19.834Z,3.65
2017-07-25T14:07:47.338Z,4.05
2017-07-25T14:10:14.844Z,3.58
2017-07-25T14:12:42.345Z,3.58
2017-07-25T14:15:09.875Z,2.70
2017-07-25T14:17:37.400Z,3.58
2017-07-25T14:20:05.658Z,4.50
2017-07-25T14:22:33.180Z,4.30
2017-07-25T14:25:00.672Z,3.50
2017-07-25T14:27:28.177Z,3.60
2017-07-25T14:29:55.699Z,3.80
2017-07-25T14:32:23.219Z,3.83
2017-07-25T14:34:50.696Z,3.70
2017-07-25T14:37:18.185Z,4.10
2017-07-25T14:39:45.741Z,3.25
2017-07-25T14:42:13.287Z,3.30
2017-07-25T14:44:40.877Z,4.20
2017-07-25T14:47:08.407Z,4.20
2017-07-25T14:49:35.891Z,3.85
2017-07-25T14:52:03.409Z,3.55
2017-07-25T14:54:30.941Z,3.85
2017-07-25T14:56:58.437Z,3.45
2017-07-25T14:59:25.938Z,4.15
2017-07-25T15:01:53.508Z,4.00
2017-07-25T15:04:21.015Z,3.72
2017-07-25T15:06:48.506Z,4.30
2017-07-25T15:09:17.058Z,4.65
2017-07-25T15:11:44.553Z,4.70
2017-07-25T15:14:12.809Z,3.92
2017-07-25T15:16:40.335Z,5.60
2017-07-25T15:19:07.841Z,3.67
2017-07-25T15:21:35.368Z,3.65
2017-07-25T15:24:03.792Z,3.80
2017-07-25T15:26:31.279Z,4.65
2017-07-25T15:28:58.815Z,3.10
2017-07-25T15:31:26.298Z,2.90
2017-07-25T15:33:53.792Z,2.95
2017-07-25T15:36:21.298Z,3.22
2017-07-25T15:38:48.797Z,3.10
2017-07-25T15:41:16.311Z,3.60
2017-07-25T15:43:43.829Z,3.10
2017-07-25T15:46:11.365Z,3.05
2017-07-25T15:48:38.848Z,3.50
2017-07-25T15:51:06.481Z,3.62
2017-07-25T15:53:34.039Z,2.92
2017-07-25T15:56:01.637Z,3.85
2017-07-25T15:58:29.127Z,3.08
2017-07-25T16:00:57.355Z,2.28
2017-07-25T16:03:24.854Z,2.65
2017-07-25T16:05:53.132Z,2.03
2017-07-25T16:08:21.446Z,2.03
2017-07-25T16:10:48.984Z,1.92
2017-07-25T16:13:16.529Z,1.70
2017-07-25T16:15:44.789Z,1.92
2017-07-25T16:18:12.343Z,1.83
2017-07-25T16:20:39.876Z,2.40
2017-07-25T16:23:08.041Z,2.50
2017-07-25T16:28:29.113Z,2.45
2017-07-25T16:30:56.639Z,2.30
2017-07-25T16:33:24.173Z,2.40
2017-07-25T16:35:51.671Z,3.25
2017-07-25T16:38:19.172Z,1.98
2017-07-25T16:40:46.676Z,3.12
2017-07-25T16:43:14.216Z,2.25
2017-07-25T16:45:41.701Z,2.30
2017-07-25T16:48:09.185Z,2.40
2017-07-25T16:50:37.667Z,3.10
2017-07-25T16:53:05.202Z,2.70
2017-07-25T16:55:32.690Z,2.60
2017-07-25T16:58:00.216Z,2.72
2017-07-25T17:00:28.215Z,2.58
2017-07-25T17:02:55.706Z,2.20
2017-07-25T17:05:23.307Z,2.78
2017-07-25T17:07:50.814Z,2.55
2017-07-25T17:10:18.317Z,2.50
2017-07-25T17:12:45.819Z,3.08
2017-07-25T17:15:14.101Z,3.17
2017-07-25T17:17:42.356Z,3.22
2017-07-25T17:20:09.847Z,3.37
2017-07-25T17:22:37.356Z,3.00
2017-07-25T17:25:04.882Z,2.80
2017-07-25T17:27:32.381Z,3.05
2017-07-25T17:29:59.899Z,3.20
2017-07-25T17:32:27.409Z,3.67
2017-07-25T17:34:54.925Z,2.78
2017-07-25T17:37:22.419Z,2.40
2017-07-25T17:39:49.954Z,3.30
2017-07-25T17:42:17.475Z,2.30
2017-07-25T17:44:45.018Z,3.15
2017-07-25T17:47:13.307Z,2.45
2017-07-25T17:49:41.595Z,2.83
2017-07-25T17:52:09.183Z,2.72
2017-07-25T17:54:36.670Z,2.90
2017-07-25T17:57:04.212Z,4.00
2017-07-25T17:59:31.719Z,3.15
2017-07-25T18:01:59.293Z,2.70
2017-07-25T18:04:27.591Z,1.67
2017-07-25T18:06:55.199Z,1.52
2017-07-25T18:09:22.701Z,2.10
2017-07-25T18:11:50.203Z,1.85
2017-07-25T18:14:17.716Z,1.87
2017-07-25T18:16:45.262Z,2.67
2017-07-25T18:19:12.868Z,1.80
2017-07-25T18:21:40.389Z,2.58
2017-07-25T18:24:07.886Z,2.40
2017-07-25T18:26:35.441Z,2.05
2017-07-25T18:29:02.990Z,2.62
2017-07-25T18:31:30.780Z,2.62
2017-07-25T18:33:58.312Z,1.90
2017-07-25T18:36:25.810Z,2.83
2017-07-25T18:38:53.519Z,2.58
2017-07-25T18:41:26.167Z,1.85
2017-07-25T18:43:53.780Z,2.25
2017-07-25T18:46:21.278Z,2.62
2017-07-25T18:48:48.804Z,3.08
2017-07-25T18:51:16.327Z,2.30
2017-07-25T18:53:43.829Z,2.33
2017-07-25T18:56:11.332Z,2.72
2017-07-25T18:58:39.709Z,1.92
2017-07-25T19:01:07.211Z,2.30
2017-07-25T19:03:34.716Z,2.90
2017-07-25T19:06:02.333Z,2.50
2017-07-25T19:08:29.844Z,2.37
2017-07-25T19:10:57.387Z,3.12
2017-07-25T19:13:24.944Z,2.65
2017-07-25T19:15:52.554Z,2.87
2017-07-25T19:18:20.066Z,2.05
2017-07-25T19:20:47.580Z,2.87
2017-07-25T19:23:15.090Z,2.78
2017-07-25T19:25:43.529Z,2.53
2017-07-25T19:28:11.341Z,2.85
2017-07-25T19:30:38.855Z,2.80
2017-07-25T19:33:07.165Z,3.65
2017-07-25T19:35:34.658Z,3.05
2017-07-25T19:38:02.330Z,3.62
2017-07-25T19:43:15.397Z,3.95
2017-07-25T19:48:23.561Z,3.78
2017-07-25T19:50:54.002Z,4.47
2017-07-25T19:53:21.530Z,3.70
2017-07-25T19:55:49.125Z,3.75
2017-07-25T19:58:20.187Z,3.50
2017-07-25T20:00:48.450Z,4.00
2017-07-25T20:03:15.978Z,4.20
2017-07-25T20:05:43.514Z,3.62
2017-07-25T20:08:11.159Z,4.45
2017-07-25T20:10:38.873Z,3.97
2017-07-25T20:13:06.949Z,4.30
2017-07-25T20:15:34.492Z,3.95
2017-07-25T20:18:01.979Z,3.92
2017-07-25T20:20:29.545Z,5.43
2017-07-25T20:22:57.815Z,4.60
2017-07-25T20:25:25.302Z,5.30
2017-07-25T20:28:21.583Z,6.35
2017-07-25T20:30:49.113Z,5.12
2017-07-25T20:33:18.666Z,4.10
2017-07-25T20:35:49.628Z,4.93
2017-07-25T20:38:17.163Z,4.65
2017-07-25T20:40:44.671Z,4.00
2017-07-25T20:43:12.176Z,4.35
2017-07-25T20:45:39.709Z,4.53
2017-07-25T20:48:07.222Z,6.50
2017-07-25T20:50:35.520Z,6.07
2017-07-25T20:53:04.164Z,6.50
2017-07-25T20:55:31.661Z,6.05
2017-07-25T20:57:59.188Z,8.25
2017-07-25T21:00:26.680Z,6.72
2017-07-25T21:02:54.156Z,6.95
2017-07-25T21:05:21.665Z,6.90
2017-07-25T21:07:49.165Z,7.15
2017-07-25T21:10:16.715Z,7.35
2017-07-25T21:12:44.230Z,7.55
2017-07-25T21:15:11.870Z,5.97
2017-07-25T21:17:39.375Z,6.18
2017-07-25T21:20:07.668Z,6.68
2017-07-25T21:22:35.938Z,6.28
2017-07-25T21:25:03.520Z,6.45
2017-07-25T21:27:31.152Z,6.82
2017-07-25T21:29:58.672Z,7.40
2017-07-25T21:32:26.166Z,6.80
2017-07-25T21:34:54.591Z,6.28
2017-07-25T21:37:22.167Z,7.35
2017-07-25T21:39:49.705Z,7.82
2017-07-25T21:42:17.226Z,6.75
2017-07-25T21:44:44.718Z,7.85
2017-07-25T21:47:12.216Z,7.20
2017-07-25T21:49:39.955Z,8.60
2017-07-25T21:52:07.462Z,7.90
2017-07-25T21:54:34.966Z,7.72
2017-07-25T21:57:02.456Z,8.85
2017-07-25T21:59:29.963Z,7.45
2017-07-25T22:02:09.248Z,8.25
2017-07-25T22:04:48.465Z,8.30
2017-07-25T22:07:15.970Z,9.27
2017-07-25T22:09:43.462Z,8.70
2017-07-25T22:12:10.959Z,8.80
2017-07-25T22:14:38.463Z,8.60
2017-07-25T22:17:05.981Z,7.20
2017-07-25T22:19:33.514Z,8.80
2017-07-25T22:22:01.030Z,9.30
2017-07-25T22:24:28.571Z,8.45
2017-07-25T22:26:56.089Z,8.35
2017-07-25T22:29:23.575Z,8.60
2017-07-25T22:31:52.157Z,7.97
2017-07-25T22:34:19.677Z,9.00
2017-07-25T22:36:47.208Z,8.40
2017-07-25T22:39:14.696Z,8.15
2017-07-25T22:41:42.342Z,8.50
2017-07-25T22:44:09.863Z,9.07
2017-07-25T22:46:37.383Z,7.72
2017-07-25T22:49:04.904Z,8.73
2017-07-25T22:51:32.438Z,8.82
2017-07-25T22:53:59.922Z,8.80
2017-07-25T22:56:28.224Z,9.07
2017-07-25T22:58:55.731Z,8.80
2017-07-25T23:01:23.261Z,8.88
2017-07-25T23:03:50.733Z,9.52
2017-07-25T23:06:18.266Z,9.30
2017-07-25T23:08:45.802Z,6.68
2017-07-25T23:11:13.316Z,10.30
2017-07-25T23:13:40.813Z,8.80
2017-07-25T23:16:09.098Z,8.02
2017-07-25T23:18:37.366Z,8.02
2017-07-25T23:21:05.645Z,7.75
2017-07-25T23:23:34.710Z,8.70
2017-07-25T23:26:02.206Z,9.10
2017-07-25T23:28:30.482Z,8.45
2017-07-25T23:30:58.758Z,7.82
2017-07-25T23:33:27.077Z,8.80
2017-07-25T23:35:54.570Z,6.85
2017-07-25T23:38:22.114Z,8.60
2017-07-25T23:40:49.683Z,7.35
2017-07-25T23:43:17.170Z,8.13
2017-07-25T23:45:44.724Z,7.10
2017-07-25T23:48:12.226Z,7.45
2017-07-25T23:50:39.714Z,7.87
2017-07-25T23:53:07.223Z,8.13
2017-07-25T23:55:35.077Z,7.05
2017-07-25T23:58:02.569Z,6.72
